createdAt,value
2018-11-28T00:01:36.925Z,42.93
2018-11-28T00:05:47.697Z,38.47
2018-11-28T00:10:04.346Z,41.57
2018-11-28T00:14:12.064Z,45.07
2018-11-28T00:18:21.065Z,37.50
2018-11-28T00:22:28.787Z,42.17
2018-11-28T00:26:36.828Z,40.07
2018-11-28T00:30:47.398Z,42.53
2018-11-28T00:34:55.229Z,39.87
2018-11-28T00:39:03.003Z,42.73
2018-11-28T00:43:11.716Z,44.37
2018-11-28T00:47:19.470Z,41.97
2018-11-28T00:51:27.386Z,43.33
2018-11-28T00:55:35.368Z,40.90
2018-11-28T00:59:43.196Z,42.23
2018-11-28T01:03:56.302Z,43.97
2018-11-28T01:08:04.321Z,38.60
2018-11-28T01:12:12.112Z,42.70
2018-11-28T01:16:20.090Z,42.83
2018-11-28T01:20:30.464Z,40.80
2018-11-28T01:24:38.877Z,38.97
2018-11-28T01:28:48.876Z,42.47
2018-11-28T01:32:56.665Z,43.97
2018-11-28T01:37:04.426Z,41.23
2018-11-28T01:41:12.114Z,39.80
2018-11-28T01:45:21.441Z,41.13
2018-11-28T01:49:29.331Z,41.33
2018-11-28T01:53:37.957Z,43.67
2018-11-28T01:57:45.730Z,41.37
2018-11-28T02:01:53.768Z,45.13
2018-11-28T02:06:01.828Z,40.93
2018-11-28T02:10:15.869Z,40.17
2018-11-28T02:14:23.592Z,49.13
2018-11-28T02:18:31.322Z,43.40
2018-11-28T02:22:39.092Z,44.83
2018-11-28T02:26:46.875Z,44.23
2018-11-28T02:30:54.511Z,43.30
2018-11-28T02:35:02.136Z,44.07
2018-11-28T02:39:12.255Z,48.00
2018-11-28T02:43:19.900Z,44.77
2018-11-28T02:47:27.617Z,49.87
2018-11-28T02:51:35.599Z,46.23
2018-11-28T02:55:43.409Z,45.33
2018-11-28T02:59:51.153Z,42.70
2018-11-28T03:03:58.970Z,40.70
2018-11-28T03:08:06.518Z,40.40
2018-11-28T03:12:14.053Z,49.87
2018-11-28T03:16:21.736Z,47.43
2018-11-28T03:20:29.565Z,50.03
2018-11-28T03:24:37.287Z,46.00
2018-11-28T03:28:45.014Z,43.70
2018-11-28T03:32:54.900Z,45.43
2018-11-28T03:37:02.517Z,49.20
2018-11-28T03:41:10.408Z,43.40
2018-11-28T03:45:18.932Z,50.73
2018-11-28T03:49:26.685Z,46.63
2018-11-28T03:53:35.399Z,44.57
2018-11-28T03:57:43.427Z,44.50
2018-11-28T04:01:52.147Z,44.00
2018-11-28T04:06:00.012Z,46.47
2018-11-28T04:10:15.735Z,45.60
2018-11-28T04:14:23.469Z,44.40
2018-11-28T04:18:31.367Z,47.00
2018-11-28T04:22:39.115Z,48.30
2018-11-28T04:26:46.919Z,48.63
2018-11-28T04:30:54.868Z,41.13
2018-11-28T04:35:02.496Z,42.33
2018-11-28T04:39:11.649Z,43.20
2018-11-28T04:43:19.569Z,41.60
2018-11-28T04:47:27.343Z,43.77
2018-11-28T04:51:35.325Z,41.47
2018-11-28T04:55:42.876Z,43.03
2018-11-28T04:59:50.480Z,48.37
2018-11-28T05:03:58.363Z,46.27
2018-11-28T05:08:07.572Z,42.87
2018-11-28T05:12:18.246Z,47.03
2018-11-28T05:16:26.865Z,44.90
2018-11-28T05:20:38.317Z,45.33
2018-11-28T05:24:46.255Z,47.93
2018-11-28T05:28:56.631Z,51.07
2018-11-28T05:33:04.655Z,49.63
2018-11-28T05:37:15.642Z,51.73
2018-11-28T05:41:23.671Z,51.20
2018-11-28T05:45:31.511Z,49.67
2018-11-28T05:49:39.308Z,46.70
2018-11-28T05:53:47.090Z,50.57
2018-11-28T05:57:54.910Z,48.60
2018-11-28T06:02:03.041Z,47.07
2018-11-28T06:06:11.155Z,46.70
2018-11-28T06:10:18.672Z,42.37
2018-11-28T06:14:26.897Z,51.20
2018-11-28T06:18:34.702Z,51.10
2018-11-28T06:22:42.386Z,52.93
2018-11-28T06:26:50.267Z,51.07
2018-11-28T06:30:57.943Z,49.57
2018-11-28T06:35:06.767Z,49.37
2018-11-28T06:39:14.577Z,47.00
2018-11-28T06:43:22.268Z,48.03
2018-11-28T06:47:29.893Z,52.63
2018-11-28T06:51:37.773Z,46.53
2018-11-28T06:55:45.654Z,48.03
2018-11-28T06:59:53.207Z,48.93
2018-11-28T07:04:01.276Z,50.13
2018-11-28T07:08:09.782Z,54.37
2018-11-28T07:12:17.508Z,51.83
2018-11-28T07:16:25.280Z,55.37
2018-11-28T07:20:33.072Z,50.13
2018-11-28T07:24:40.640Z,51.13
2018-11-28T07:28:48.260Z,49.77
2018-11-28T07:33:00.139Z,50.57
2018-11-28T07:37:08.435Z,51.60
2018-11-28T07:41:16.003Z,48.77
2018-11-28T07:45:23.773Z,50.17
2018-11-28T07:49:33.157Z,52.93
2018-11-28T07:53:41.061Z,54.83
2018-11-28T07:57:48.938Z,49.47
2018-11-28T08:01:57.034Z,50.00
2018-11-28T08:06:07.854Z,51.27
2018-11-28T08:10:27.754Z,49.90
2018-11-28T08:14:36.808Z,54.33
2018-11-28T08:18:44.599Z,54.77
2018-11-28T08:22:52.319Z,52.63
2018-11-28T08:27:00.112Z,55.30
2018-11-28T08:31:08.274Z,61.67
2018-11-28T08:35:16.571Z,55.10
2018-11-28T08:39:24.675Z,50.40
2018-11-28T08:43:32.431Z,57.13
2018-11-28T08:47:40.311Z,56.40
2018-11-28T08:51:48.241Z,49.67
2018-11-28T08:55:56.496Z,56.40
2018-11-28T09:00:13.137Z,56.53
2018-11-28T09:04:22.637Z,55.07
2018-11-28T09:08:31.086Z,55.23
2018-11-28T09:12:38.824Z,54.27
2018-11-28T09:16:53.567Z,52.77
2018-11-28T09:21:02.127Z,53.63
2018-11-28T09:25:17.974Z,55.00
2018-11-28T09:29:41.199Z,51.07
2018-11-28T09:33:49.201Z,50.67
2018-11-28T09:37:57.209Z,52.90
2018-11-28T09:42:04.839Z,50.13
2018-11-28T09:46:12.815Z,46.10
2018-11-28T09:50:25.989Z,45.53
2018-11-28T09:54:33.702Z,49.60
2018-11-28T09:58:41.493Z,46.03
2018-11-28T10:02:52.374Z,48.87
2018-11-28T10:07:02.662Z,43.30
2018-11-28T10:11:10.521Z,42.07
2018-11-28T10:15:26.245Z,44.93
2018-11-28T10:19:35.210Z,46.77
2018-11-28T10:23:43.500Z,44.80
2018-11-28T10:27:59.577Z,46.60
2018-11-28T10:32:08.082Z,42.67
2018-11-28T10:36:17.176Z,43.13
2018-11-28T10:40:26.416Z,42.93
2018-11-28T10:44:34.340Z,43.43
2018-11-28T10:48:42.204Z,40.77
2018-11-28T10:52:50.026Z,40.20
2018-11-28T10:56:57.555Z,41.60
2018-11-28T11:01:22.485Z,41.00
2018-11-28T11:05:48.659Z,40.00
2018-11-28T11:10:13.915Z,39.77
2018-11-28T11:14:39.303Z,44.57
2018-11-28T11:18:47.265Z,40.53
2018-11-28T11:22:54.935Z,39.10
2018-11-28T11:27:02.600Z,36.90
2018-11-28T11:31:10.960Z,35.63
2018-11-28T11:35:18.572Z,33.10
2018-11-28T11:39:26.318Z,37.37
2018-11-28T11:43:38.441Z,34.73
2018-11-28T11:47:46.439Z,34.83
2018-11-28T11:51:54.115Z,32.27
2018-11-28T11:56:01.635Z,31.80
2018-11-28T12:00:22.923Z,35.73
2018-11-28T12:04:30.567Z,35.07
2018-11-28T12:08:38.921Z,36.93
2018-11-28T12:12:51.631Z,32.67
2018-11-28T12:16:56.888Z,32.60
2018-11-28T12:21:07.663Z,32.30
2018-11-28T12:25:15.943Z,33.70
2018-11-28T12:29:23.678Z,33.40
2018-11-28T12:33:31.521Z,29.77
2018-11-28T12:37:42.670Z,29.80
2018-11-28T12:41:50.482Z,33.53
2018-11-28T12:45:59.541Z,34.77
2018-11-28T12:50:20.643Z,32.17
2018-11-28T12:54:28.402Z,27.67
2018-11-28T12:58:36.124Z,30.07
2018-11-28T13:02:44.487Z,33.97
2018-11-28T13:06:52.849Z,66.00
2018-11-28T13:11:00.611Z,30.33
2018-11-28T13:15:11.908Z,32.47
2018-11-28T13:19:19.491Z,30.93
2018-11-28T13:23:27.371Z,30.97
2018-11-28T13:27:35.112Z,34.73
2018-11-28T13:31:42.924Z,34.90
2018-11-28T13:35:50.658Z,31.83
2018-11-28T13:39:58.818Z,29.27
2018-11-28T13:44:08.158Z,35.37
2018-11-28T13:48:16.742Z,33.93
2018-11-28T13:52:24.665Z,32.07
2018-11-28T13:57:06.099Z,36.07
2018-11-28T14:00:44.732Z,32.67
2018-11-28T14:04:52.653Z,30.07
2018-11-28T14:09:00.281Z,33.33
2018-11-28T14:13:08.410Z,34.37
2018-11-28T14:17:16.864Z,32.13
2018-11-28T14:21:30.976Z,33.57
2018-11-28T14:25:42.880Z,32.97
2018-11-28T14:29:50.809Z,29.40
2018-11-28T14:33:58.372Z,33.53
2018-11-28T14:38:08.825Z,33.20
2018-11-28T14:42:17.243Z,33.20
2018-11-28T14:46:25.158Z,32.17
2018-11-28T14:50:34.188Z,31.67
2018-11-28T14:54:41.974Z,32.27
2018-11-28T14:58:49.775Z,30.97
2018-11-28T15:03:20.838Z,30.53
2018-11-28T15:07:29.325Z,32.27
2018-11-28T15:11:37.107Z,32.17
2018-11-28T15:15:45.049Z,33.40
2018-11-28T15:19:53.459Z,29.33
2018-11-28T15:24:02.493Z,30.83
2018-11-28T15:28:12.180Z,29.73
2018-11-28T15:32:23.370Z,33.03
2018-11-28T15:36:31.695Z,28.67
2018-11-28T15:41:03.224Z,29.40
2018-11-28T15:45:18.519Z,31.03
2018-11-28T15:49:26.371Z,30.07
2018-11-28T15:53:35.742Z,32.43
2018-11-28T15:57:44.568Z,31.90
2018-11-28T16:01:55.171Z,31.67
2018-11-28T16:06:05.401Z,33.73
2018-11-28T16:10:33.720Z,32.40
2018-11-28T16:14:43.473Z,31.97
2018-11-28T16:18:51.126Z,34.20
2018-11-28T16:23:04.367Z,31.00
2018-11-28T16:27:08.382Z,34.00
2018-11-28T16:31:16.414Z,31.30
2018-11-28T16:35:32.732Z,28.33
2018-11-28T16:39:38.891Z,31.73
2018-11-28T16:43:46.690Z,28.53
2018-11-28T16:47:54.693Z,36.13
2018-11-28T16:52:02.504Z,34.43
2018-11-28T16:56:10.513Z,34.90
2018-11-28T17:00:21.530Z,30.53
2018-11-28T17:04:33.623Z,31.77
2018-11-28T17:08:42.959Z,29.90
2018-11-28T17:12:53.572Z,31.53
2018-11-28T17:17:02.522Z,32.77
2018-11-28T17:21:10.775Z,31.60
2018-11-28T17:25:29.706Z,30.70
2018-11-28T17:29:38.223Z,28.20
2018-11-28T17:33:46.023Z,30.30
2018-11-28T17:37:54.354Z,27.93
2018-11-28T17:42:02.137Z,27.97
2018-11-28T17:46:10.056Z,27.20
2018-11-28T17:50:30.658Z,29.53
2018-11-28T17:54:38.468Z,29.30
2018-11-28T17:58:46.421Z,28.87
2018-11-28T18:02:54.082Z,28.50
2018-11-28T18:07:02.795Z,27.70
2018-11-28T18:11:18.423Z,30.47
2018-11-28T18:15:29.229Z,31.50
2018-11-28T18:19:36.981Z,30.50
2018-11-28T18:23:44.861Z,58.63
2018-11-28T18:27:55.277Z,28.03
2018-11-28T18:32:03.420Z,29.63
2018-11-28T18:36:17.072Z,28.90
2018-11-28T18:40:25.408Z,27.87
2018-11-28T18:44:34.131Z,29.97
2018-11-28T18:48:47.352Z,30.67
2018-11-28T18:52:59.495Z,28.70
2018-11-28T18:57:16.341Z,27.77
2018-11-28T19:01:28.208Z,28.47
2018-11-28T19:05:36.655Z,31.93
2018-11-28T19:09:54.079Z,28.33
2018-11-28T19:14:01.758Z,29.37
2018-11-28T19:18:09.752Z,28.97
2018-11-28T19:22:17.854Z,28.03
2018-11-28T19:26:26.219Z,27.77
2018-11-28T19:30:45.993Z,27.13
2018-11-28T19:34:58.851Z,26.63
2018-11-28T19:39:11.907Z,28.53
2018-11-28T19:43:19.971Z,31.30
2018-11-28T19:47:28.054Z,32.17
2018-11-28T19:51:35.761Z,32.60
2018-11-28T19:55:44.263Z,33.50
2018-11-28T19:59:51.889Z,34.93
2018-11-28T20:04:02.551Z,33.57
2018-11-28T20:08:11.493Z,36.10
2018-11-28T20:12:19.413Z,34.87
2018-11-28T20:16:28.755Z,31.77
2018-11-28T20:20:36.553Z,34.73
2018-11-28T20:24:46.927Z,38.83
2018-11-28T20:28:54.405Z,36.40
2018-11-28T20:33:03.030Z,37.27
2018-11-28T20:37:12.047Z,41.30
2018-11-28T20:41:19.933Z,42.50
2018-11-28T20:45:27.786Z,40.50
2018-11-28T20:49:36.429Z,38.23
2018-11-28T20:53:44.388Z,38.40
2018-11-28T20:57:53.202Z,39.47
2018-11-28T21:02:00.776Z,40.23
2018-11-28T21:06:08.976Z,39.17
2018-11-28T21:10:36.887Z,45.10
2018-11-28T21:14:44.385Z,41.50
2018-11-28T21:18:51.989Z,42.17
2018-11-28T21:23:13.177Z,42.70
2018-11-28T21:27:23.573Z,40.03
2018-11-28T21:31:31.318Z,39.90
2018-11-28T21:35:53.432Z,41.70
2018-11-28T21:40:00.992Z,41.23
2018-11-28T21:44:08.867Z,36.90
2018-11-28T21:48:16.489Z,41.30
2018-11-28T21:52:24.078Z,43.47
2018-11-28T21:56:31.580Z,36.27
2018-11-28T22:00:39.983Z,41.97
2018-11-28T22:04:47.589Z,39.90
2018-11-28T22:08:55.352Z,39.73
2018-11-28T22:13:04.433Z,38.00
2018-11-28T22:17:12.550Z,39.27
2018-11-28T22:21:20.549Z,42.40
2018-11-28T22:25:34.110Z,43.03
2018-11-28T22:29:41.971Z,44.03
2018-11-28T22:33:49.575Z,45.50
2018-11-28T22:37:57.034Z,52.20
2018-11-28T22:42:04.846Z,49.87
2018-11-28T22:46:12.500Z,46.90
2018-11-28T22:50:20.233Z,53.43
2018-11-28T22:54:27.752Z,56.20
2018-11-28T22:58:35.276Z,50.10
2018-11-28T23:03:17.126Z,48.27
2018-11-28T23:07:24.592Z,53.60
2018-11-28T23:11:32.291Z,49.67
2018-11-28T23:15:40.834Z,54.33
2018-11-28T23:19:48.633Z,53.43
2018-11-28T23:23:56.257Z,46.60
2018-11-28T23:28:04.109Z,54.53
2018-11-28T23:32:14.333Z,50.37
2018-11-28T23:36:22.038Z,60.43
2018-11-28T23:40:30.297Z,57.50
2018-11-28T23:44:37.915Z,53.67
2018-11-28T23:48:45.747Z,53.90
2018-11-28T23:52:54.545Z,55.57
2018-11-28T23:57:02.256Z,59.80
